createdAt,value
2023-05-09T00:01:32.371Z,14.40
2023-05-09T00:04:17.617Z,14.39
2023-05-09T00:07:02.365Z,14.35
2023-05-09T00:09:47.497Z,14.30
2023-05-09T00:12:32.563Z,14.24
2023-05-09T00:15:17.465Z,14.24
2023-05-09T00:18:02.690Z,14.29
2023-05-09T00:20:47.521Z,14.34
2023-05-09T00:23:32.659Z,14.38
2023-05-09T00:26:17.684Z,14.41
2023-05-09T00:29:02.608Z,14.43
2023-05-09T00:31:47.575Z,14.43
2023-05-09T00:34:32.637Z,14.48
2023-05-09T00:37:17.575Z,14.46
2023-05-09T00:40:02.564Z,14.45
2023-05-09T00:42:47.705Z,14.46
2023-05-09T00:45:32.631Z,14.43
2023-05-09T00:48:17.712Z,14.43
2023-05-09T00:51:02.645Z,14.42
2023-05-09T00:53:47.567Z,14.40
2023-05-09T00:56:32.503Z,14.41
2023-05-09T00:59:17.601Z,14.33
2023-05-09T01:02:02.550Z,14.25
2023-05-09T01:04:47.396Z,14.08
2023-05-09T01:07:32.481Z,13.92
2023-05-09T01:10:17.361Z,13.75
2023-05-09T01:13:02.351Z,13.74
2023-05-09T01:15:47.215Z,13.68
2023-05-09T01:18:32.354Z,13.72
2023-05-09T01:21:17.278Z,13.73
2023-05-09T01:24:02.349Z,13.78
2023-05-09T01:26:47.338Z,13.83
2023-05-09T01:29:32.262Z,13.86
2023-05-09T01:32:17.312Z,13.88
2023-05-09T01:35:02.205Z,13.84
2023-05-09T01:37:47.272Z,13.81
2023-05-09T01:40:32.332Z,13.75
2023-05-09T01:43:17.456Z,13.68
2023-05-09T01:46:02.286Z,13.65
2023-05-09T01:48:47.334Z,13.59
2023-05-09T01:51:32.620Z,13.46
2023-05-09T01:54:17.543Z,13.39
2023-05-09T01:57:02.720Z,13.34
2023-05-09T01:59:47.698Z,13.22
2023-05-09T02:02:32.944Z,13.16
2023-05-09T02:05:17.856Z,13.18
2023-05-09T02:08:02.846Z,13.15
2023-05-09T02:10:47.897Z,13.06
2023-05-09T02:13:32.853Z,12.99
2023-05-09T02:16:19.039Z,12.98
2023-05-09T02:19:05.645Z,13.06
2023-05-09T02:21:50.796Z,13.10
2023-05-09T02:24:35.883Z,13.12
2023-05-09T02:27:20.822Z,13.13
2023-05-09T02:30:05.952Z,13.14
2023-05-09T02:32:50.815Z,13.13
2023-05-09T02:35:35.824Z,13.11
2023-05-09T02:38:20.705Z,13.06
2023-05-09T02:41:05.747Z,13.06
2023-05-09T02:43:50.743Z,13.03
2023-05-09T02:46:35.893Z,12.93
2023-05-09T02:49:31.636Z,12.85
2023-05-09T02:52:17.604Z,12.88
2023-05-09T02:55:02.530Z,12.99
2023-05-09T02:57:47.311Z,13.07
2023-05-09T03:00:32.381Z,13.13
2023-05-09T03:03:17.564Z,13.09
2023-05-09T03:06:02.655Z,13.02
2023-05-09T03:08:47.514Z,12.91
2023-05-09T03:11:32.722Z,12.87
2023-05-09T03:14:17.633Z,12.94
2023-05-09T03:17:02.798Z,12.94
2023-05-09T03:19:47.892Z,12.93
2023-05-09T03:22:32.965Z,12.96
2023-05-09T03:25:18.205Z,12.94
2023-05-09T03:28:02.935Z,12.92
2023-05-09T03:30:48.134Z,12.89
2023-05-09T03:33:33.147Z,12.84
2023-05-09T03:36:18.292Z,12.82
2023-05-09T03:39:03.219Z,12.76
2023-05-09T03:41:48.256Z,12.70
2023-05-09T03:44:33.320Z,12.70
2023-05-09T03:47:18.230Z,12.74
2023-05-09T03:50:03.318Z,12.70
2023-05-09T03:52:48.223Z,12.69
2023-05-09T03:55:33.297Z,12.68
2023-05-09T03:58:18.326Z,12.64
2023-05-09T04:01:03.442Z,12.61
2023-05-09T04:03:48.533Z,12.63
2023-05-09T04:06:33.534Z,12.73
2023-05-09T04:09:18.584Z,12.77
2023-05-09T04:12:03.498Z,12.79
2023-05-09T04:14:49.108Z,12.80
2023-05-09T04:17:33.975Z,12.81
2023-05-09T04:20:19.030Z,12.73
2023-05-09T04:23:04.192Z,12.74
2023-05-09T04:25:49.141Z,12.79
2023-05-09T04:28:34.138Z,12.86
2023-05-09T04:31:19.290Z,12.90
2023-05-09T04:34:04.216Z,12.95
2023-05-09T04:36:49.255Z,12.97
2023-05-09T04:39:34.396Z,13.03
2023-05-09T04:42:19.254Z,13.09
2023-05-09T04:45:04.257Z,13.11
2023-05-09T04:47:49.343Z,13.17
2023-05-09T04:50:34.263Z,13.25
2023-05-09T04:53:19.327Z,13.39
2023-05-09T04:56:04.156Z,13.58
2023-05-09T04:58:49.102Z,13.80
2023-05-09T05:01:34.077Z,14.00
2023-05-09T05:04:20.207Z,14.18
2023-05-09T05:07:05.233Z,14.32
2023-05-09T05:09:50.089Z,14.43
2023-05-09T05:12:35.190Z,14.59
2023-05-09T05:15:20.179Z,14.82
2023-05-09T05:18:05.455Z,15.11
2023-05-09T05:20:50.123Z,15.25
2023-05-09T05:23:35.157Z,15.23
2023-05-09T05:26:19.973Z,15.19
2023-05-09T05:29:05.141Z,15.21
2023-05-09T05:31:50.350Z,15.41
2023-05-09T05:34:35.283Z,15.32
2023-05-09T05:37:20.420Z,15.29
2023-05-09T05:40:05.409Z,15.24
2023-05-09T05:42:50.490Z,15.35
2023-05-09T05:45:35.355Z,15.56
2023-05-09T05:48:20.586Z,15.67
2023-05-09T05:51:05.623Z,15.51
2023-05-09T05:53:50.571Z,15.52
2023-05-09T05:56:35.659Z,15.55
2023-05-09T05:59:20.611Z,15.64
2023-05-09T06:02:05.787Z,15.72
2023-05-09T06:04:50.654Z,16.10
2023-05-09T06:07:35.636Z,16.72
2023-05-09T06:10:20.623Z,17.17
2023-05-09T06:13:05.307Z,18.13
2023-05-09T06:15:50.203Z,18.29
2023-05-09T06:18:35.168Z,18.87
2023-05-09T06:21:20.277Z,19.40
2023-05-09T06:24:11.773Z,18.79
2023-05-09T06:26:59.210Z,17.85
2023-05-09T06:29:44.173Z,17.09
2023-05-09T06:32:29.163Z,16.57
2023-05-09T06:35:14.432Z,16.44
2023-05-09T06:37:59.791Z,16.78
2023-05-09T06:40:44.634Z,16.80
2023-05-09T06:43:29.697Z,17.02
2023-05-09T06:46:14.717Z,17.69
2023-05-09T06:48:59.672Z,17.76
2023-05-09T06:51:44.436Z,17.99
2023-05-09T06:54:29.594Z,18.32
2023-05-09T06:57:14.720Z,18.32
2023-05-09T06:59:59.553Z,18.28
2023-05-09T07:02:44.668Z,19.69
2023-05-09T07:05:29.788Z,21.27
2023-05-09T07:08:14.660Z,22.36
2023-05-09T07:10:59.609Z,23.28
2023-05-09T07:13:44.650Z,24.26
2023-05-09T07:16:29.666Z,24.99
2023-05-09T07:19:14.748Z,24.60
2023-05-09T07:21:59.755Z,24.84
2023-05-09T07:24:44.859Z,24.84
2023-05-09T07:27:30.033Z,24.08
2023-05-09T07:30:15.112Z,23.94
2023-05-09T07:33:00.172Z,23.19
2023-05-09T07:35:45.116Z,22.67
2023-05-09T07:38:29.976Z,21.75
2023-05-09T07:41:14.878Z,21.45
2023-05-09T07:43:59.775Z,21.12
2023-05-09T07:46:44.950Z,20.98
2023-05-09T07:49:29.860Z,20.75
2023-05-09T07:52:14.965Z,20.62
2023-05-09T07:54:59.991Z,20.71
2023-05-09T07:57:45.116Z,20.77
2023-05-09T08:00:30.168Z,20.82
2023-05-09T08:03:15.273Z,20.52
2023-05-09T08:06:00.725Z,20.17
2023-05-09T08:08:45.585Z,20.14
2023-05-09T08:11:30.842Z,19.82
2023-05-09T08:14:15.801Z,19.83
2023-05-09T08:17:00.647Z,19.86
2023-05-09T08:19:45.569Z,19.95
2023-05-09T08:22:30.577Z,19.97
2023-05-09T08:25:15.840Z,20.16
2023-05-09T08:28:01.034Z,20.19
2023-05-09T08:30:46.168Z,20.17
2023-05-09T08:33:31.114Z,20.08
2023-05-09T08:36:16.230Z,19.67
2023-05-09T08:39:01.090Z,19.47
2023-05-09T08:41:46.246Z,19.44
2023-05-09T08:44:31.162Z,19.08
2023-05-09T08:47:16.180Z,19.15
2023-05-09T08:50:01.330Z,19.02
2023-05-09T08:52:46.206Z,19.26
2023-05-09T08:55:31.357Z,19.37
2023-05-09T08:58:16.306Z,19.35
2023-05-09T09:01:01.357Z,19.17
2023-05-09T09:03:46.181Z,19.18
2023-05-09T09:06:31.263Z,19.37
2023-05-09T09:09:16.198Z,19.35
2023-05-09T09:12:01.238Z,19.63
2023-05-09T09:14:46.278Z,19.27
2023-05-09T09:17:31.262Z,19.47
2023-05-09T09:20:16.585Z,19.50
2023-05-09T09:23:01.709Z,19.67
2023-05-09T09:25:46.873Z,19.96
2023-05-09T09:28:31.863Z,20.14
2023-05-09T09:31:17.204Z,19.74
2023-05-09T09:34:02.303Z,20.14
2023-05-09T09:36:47.342Z,19.83
2023-05-09T09:39:32.359Z,19.67
2023-05-09T09:42:17.249Z,19.88
2023-05-09T09:45:02.169Z,19.56
2023-05-09T09:47:47.172Z,19.51
2023-05-09T09:50:32.161Z,19.90
2023-05-09T09:53:17.185Z,19.76
2023-05-09T09:56:02.239Z,19.93
2023-05-09T09:58:47.327Z,20.26
2023-05-09T10:01:32.293Z,20.15
2023-05-09T10:04:17.342Z,20.38
2023-05-09T10:07:02.168Z,20.72
2023-05-09T10:09:47.180Z,20.73
2023-05-09T10:12:32.115Z,20.89
2023-05-09T10:15:17.167Z,20.93
2023-05-09T10:18:02.395Z,20.92
2023-05-09T10:20:47.084Z,21.16
2023-05-09T10:23:32.182Z,21.35
2023-05-09T10:26:17.083Z,21.64
2023-05-09T10:29:01.981Z,21.58
2023-05-09T10:31:46.924Z,21.71
2023-05-09T10:34:31.793Z,21.98
2023-05-09T10:37:16.642Z,22.09
2023-05-09T10:40:01.551Z,21.98
2023-05-09T10:42:46.689Z,22.15
2023-05-09T10:45:31.624Z,22.33
2023-05-09T10:48:16.691Z,22.31
2023-05-09T10:51:01.594Z,22.21
2023-05-09T10:53:46.530Z,22.14
2023-05-09T10:56:31.532Z,22.10
2023-05-09T10:59:16.519Z,22.06
2023-05-09T11:02:01.708Z,22.23
2023-05-09T11:04:46.549Z,22.05
2023-05-09T11:07:31.698Z,22.12
2023-05-09T11:10:16.623Z,22.19
2023-05-09T11:13:01.810Z,22.04
2023-05-09T11:15:46.797Z,21.91
2023-05-09T11:18:31.720Z,21.93
2023-05-09T11:21:16.598Z,21.51
2023-05-09T11:24:01.703Z,21.37
2023-05-09T11:26:46.823Z,21.67
2023-05-09T11:29:31.814Z,21.49
2023-05-09T11:32:16.950Z,21.17
2023-05-09T11:35:01.894Z,21.10
2023-05-09T11:37:46.849Z,21.13
2023-05-09T11:40:31.889Z,21.24
2023-05-09T11:43:16.898Z,21.30
2023-05-09T11:46:02.012Z,21.47
2023-05-09T11:48:46.924Z,21.26
2023-05-09T11:51:31.901Z,21.05
2023-05-09T11:54:16.803Z,21.05
2023-05-09T11:57:01.884Z,20.58
2023-05-09T11:59:46.841Z,20.46
2023-05-09T12:02:32.029Z,20.25
2023-05-09T12:05:17.176Z,20.23
2023-05-09T12:08:02.387Z,20.30
2023-05-09T12:10:47.424Z,20.28
2023-05-09T12:13:32.434Z,20.47
2023-05-09T12:16:17.449Z,20.20
2023-05-09T12:19:03.491Z,20.28
2023-05-09T12:21:48.868Z,20.19
2023-05-09T12:24:33.823Z,20.34
2023-05-09T12:27:19.002Z,20.10
2023-05-09T12:30:04.050Z,20.30
2023-05-09T12:32:48.896Z,20.16
2023-05-09T12:35:33.879Z,20.14
2023-05-09T12:38:18.845Z,20.21
2023-05-09T12:41:04.096Z,20.05
2023-05-09T12:43:48.858Z,19.91
2023-05-09T12:46:35.706Z,19.79
2023-05-09T12:49:21.003Z,19.72
2023-05-09T12:52:07.771Z,19.66
2023-05-09T12:54:54.075Z,19.72
2023-05-09T12:57:38.953Z,19.91
2023-05-09T13:00:23.927Z,20.18
2023-05-09T13:03:08.920Z,20.17
2023-05-09T13:05:53.725Z,20.06
2023-05-09T13:08:38.790Z,19.96
2023-05-09T13:11:23.797Z,19.73
2023-05-09T13:14:08.982Z,19.62
2023-05-09T13:16:54.045Z,19.61
2023-05-09T13:19:39.101Z,19.75
2023-05-09T13:22:24.108Z,19.83
2023-05-09T13:25:09.160Z,19.84
2023-05-09T13:27:54.060Z,19.70
2023-05-09T13:30:39.021Z,19.64
2023-05-09T13:33:26.419Z,19.82
2023-05-09T13:36:11.615Z,19.90
2023-05-09T13:38:56.573Z,19.63
2023-05-09T13:41:41.592Z,19.67
2023-05-09T13:44:26.566Z,19.87
2023-05-09T13:47:11.627Z,20.20
2023-05-09T13:49:56.651Z,20.38
2023-05-09T13:52:41.675Z,20.56
2023-05-09T13:55:26.750Z,20.45
2023-05-09T13:58:11.749Z,20.19
2023-05-09T14:00:56.854Z,20.11
2023-05-09T14:03:41.823Z,19.97
2023-05-09T14:06:26.874Z,19.96
2023-05-09T14:09:11.844Z,20.05
2023-05-09T14:11:56.831Z,20.02
2023-05-09T14:14:41.695Z,19.94
2023-05-09T14:17:26.859Z,20.07
2023-05-09T14:20:11.768Z,20.21
2023-05-09T14:22:56.735Z,20.09
2023-05-09T14:25:41.770Z,20.02
2023-05-09T14:28:26.801Z,20.08
2023-05-09T14:31:11.864Z,20.19
2023-05-09T14:33:56.816Z,20.27
2023-05-09T14:36:41.978Z,20.07
2023-05-09T14:39:26.834Z,19.55
2023-05-09T14:42:11.868Z,19.47
2023-05-09T14:44:56.745Z,19.55
2023-05-09T14:47:41.808Z,19.40
2023-05-09T14:50:26.838Z,19.30
2023-05-09T14:53:11.815Z,19.31
2023-05-09T14:55:56.935Z,19.31
2023-05-09T14:58:41.928Z,19.33
2023-05-09T15:01:26.939Z,19.30
2023-05-09T15:04:11.976Z,19.03
2023-05-09T15:06:57.020Z,18.90
2023-05-09T15:09:42.067Z,18.78
2023-05-09T15:12:27.072Z,18.70
2023-05-09T15:15:12.165Z,18.73
2023-05-09T15:17:57.047Z,18.53
2023-05-09T15:20:42.215Z,18.25
2023-05-09T15:23:27.316Z,18.00
2023-05-09T15:26:12.399Z,17.80
2023-05-09T15:28:57.401Z,17.66
2023-05-09T15:31:42.212Z,17.58
2023-05-09T15:34:27.277Z,17.44
2023-05-09T15:37:12.210Z,17.35
2023-05-09T15:39:57.431Z,17.37
2023-05-09T15:42:42.356Z,17.26
2023-05-09T15:45:27.517Z,17.10
2023-05-09T15:48:12.515Z,16.99
2023-05-09T15:50:57.683Z,17.07
2023-05-09T15:53:42.717Z,17.15
2023-05-09T15:56:27.583Z,17.32
2023-05-09T15:59:12.662Z,17.33
2023-05-09T16:01:57.603Z,17.39
2023-05-09T16:04:42.627Z,17.40
2023-05-09T16:07:27.532Z,17.26
2023-05-09T16:10:12.786Z,17.32
2023-05-09T16:12:57.694Z,17.39
2023-05-09T16:15:42.673Z,17.37
2023-05-09T16:18:27.735Z,17.25
2023-05-09T16:21:12.645Z,17.21
2023-05-09T16:23:57.808Z,17.25
2023-05-09T16:26:42.709Z,17.03
2023-05-09T16:29:27.876Z,16.74
2023-05-09T16:32:12.891Z,16.37
2023-05-09T16:34:57.808Z,16.09
2023-05-09T16:37:42.959Z,15.92
2023-05-09T16:40:27.839Z,16.00
2023-05-09T16:43:12.871Z,16.20
2023-05-09T16:45:57.864Z,16.28
2023-05-09T16:48:42.907Z,16.28
2023-05-09T16:51:27.769Z,16.17
2023-05-09T16:54:12.848Z,16.03
2023-05-09T16:56:57.776Z,15.90
2023-05-09T16:59:42.958Z,15.89
2023-05-09T17:02:27.975Z,15.95
2023-05-09T17:05:12.806Z,16.03
2023-05-09T17:07:57.966Z,16.05
2023-05-09T17:10:42.862Z,16.09
2023-05-09T17:13:27.941Z,16.15
2023-05-09T17:16:12.875Z,16.23
2023-05-09T17:18:57.872Z,16.26
2023-05-09T17:21:42.803Z,16.12
2023-05-09T17:24:27.814Z,15.92
2023-05-09T17:27:12.946Z,15.79
2023-05-09T17:29:57.964Z,15.61
2023-05-09T17:32:43.240Z,15.57
2023-05-09T17:35:28.087Z,15.54
2023-05-09T17:38:13.118Z,15.51
2023-05-09T17:40:57.965Z,15.51
2023-05-09T17:43:43.027Z,15.58
2023-05-09T17:46:28.097Z,15.63
2023-05-09T17:49:12.996Z,15.55
2023-05-09T17:51:58.108Z,15.33
2023-05-09T17:54:42.986Z,15.18
2023-05-09T17:57:28.045Z,15.04
2023-05-09T18:00:13.111Z,14.87
2023-05-09T18:02:58.089Z,14.82
2023-05-09T18:05:42.916Z,14.86
2023-05-09T18:08:28.092Z,14.86
2023-05-09T18:11:13.284Z,14.82
2023-05-09T18:13:58.305Z,14.75
2023-05-09T18:16:43.375Z,14.67
2023-05-09T18:19:28.257Z,14.52
2023-05-09T18:22:13.230Z,14.49
2023-05-09T18:24:58.287Z,14.43
2023-05-09T18:27:43.489Z,14.38
2023-05-09T18:30:28.505Z,14.28
2023-05-09T18:33:13.511Z,14.25
2023-05-09T18:35:58.666Z,14.30
2023-05-09T18:38:43.723Z,14.40
2023-05-09T18:41:28.715Z,14.55
2023-05-09T18:44:14.555Z,14.63
2023-05-09T18:46:59.922Z,14.67
2023-05-09T18:49:44.928Z,14.66
2023-05-09T18:52:29.771Z,14.50
2023-05-09T18:55:14.918Z,14.39
2023-05-09T18:57:59.901Z,14.38
2023-05-09T19:00:44.962Z,14.40
2023-05-09T19:03:29.993Z,14.32
2023-05-09T19:06:15.069Z,14.17
2023-05-09T19:09:00.180Z,13.93
2023-05-09T19:11:45.276Z,13.90
2023-05-09T19:14:30.441Z,13.88
2023-05-09T19:17:15.441Z,13.79
2023-05-09T19:20:00.601Z,13.73
2023-05-09T19:22:45.635Z,13.70
2023-05-09T19:25:30.693Z,13.78
2023-05-09T19:28:15.700Z,13.81
2023-05-09T19:31:00.686Z,13.77
2023-05-09T19:33:45.805Z,13.85
2023-05-09T19:36:30.678Z,13.81
2023-05-09T19:39:15.848Z,13.79
2023-05-09T19:42:00.981Z,13.69
2023-05-09T19:44:45.998Z,13.69
2023-05-09T19:47:30.867Z,13.82
2023-05-09T19:50:16.103Z,13.93
2023-05-09T19:53:01.361Z,14.06
2023-05-09T19:55:46.274Z,14.13
2023-05-09T19:58:31.427Z,14.21
2023-05-09T20:01:16.350Z,14.24
2023-05-09T20:04:01.427Z,14.26
2023-05-09T20:06:46.338Z,14.25
2023-05-09T20:09:31.440Z,14.23
2023-05-09T20:12:16.522Z,14.16
2023-05-09T20:15:01.380Z,13.88
2023-05-09T20:17:46.327Z,13.68
2023-05-09T20:20:31.224Z,13.52
2023-05-09T20:23:16.240Z,13.40
2023-05-09T20:26:01.286Z,13.45
2023-05-09T20:28:46.312Z,13.57
2023-05-09T20:31:31.252Z,13.62
2023-05-09T20:34:16.177Z,13.65
2023-05-09T20:37:01.164Z,13.77
2023-05-09T20:39:46.131Z,13.81
2023-05-09T20:42:31.157Z,13.82
2023-05-09T20:45:16.065Z,13.82
2023-05-09T20:48:01.205Z,13.84
2023-05-09T20:50:46.114Z,13.88
2023-05-09T20:53:31.307Z,13.88
2023-05-09T20:56:16.115Z,13.91
2023-05-09T20:59:01.208Z,13.88
2023-05-09T21:01:46.077Z,13.84
2023-05-09T21:04:31.049Z,13.76
2023-05-09T21:07:16.104Z,13.81
2023-05-09T21:10:00.967Z,13.79
2023-05-09T21:12:46.009Z,13.79
2023-05-09T21:15:30.926Z,13.77
2023-05-09T21:18:16.204Z,13.76
2023-05-09T21:21:01.246Z,13.75
2023-05-09T21:23:46.256Z,13.76
2023-05-09T21:26:31.336Z,13.80
2023-05-09T21:29:16.227Z,13.81
2023-05-09T21:32:01.303Z,13.79
2023-05-09T21:34:46.383Z,13.77
2023-05-09T21:37:31.173Z,13.77
2023-05-09T21:40:16.445Z,13.72
2023-05-09T21:43:01.618Z,13.52
2023-05-09T21:45:46.530Z,13.32
2023-05-09T21:48:31.602Z,13.23
2023-05-09T21:51:16.796Z,13.18
2023-05-09T21:54:01.823Z,13.19
2023-05-09T21:56:46.913Z,13.22
2023-05-09T21:59:31.949Z,13.26
2023-05-09T22:02:17.170Z,13.22
2023-05-09T22:05:01.968Z,13.19
2023-05-09T22:07:46.998Z,13.17
2023-05-09T22:10:31.944Z,13.04
2023-05-09T22:13:16.869Z,12.88
2023-05-09T22:16:01.955Z,12.76
2023-05-09T22:18:46.876Z,12.59
2023-05-09T22:21:31.895Z,12.48
2023-05-09T22:24:16.699Z,12.35
2023-05-09T22:27:01.701Z,12.31
2023-05-09T22:29:46.656Z,12.24
2023-05-09T22:32:31.665Z,12.22
2023-05-09T22:35:16.649Z,12.20
2023-05-09T22:38:01.554Z,12.23
2023-05-09T22:40:46.629Z,12.24
2023-05-09T22:43:38.868Z,12.32
2023-05-09T22:46:24.686Z,12.43
2023-05-09T22:49:09.674Z,12.46
2023-05-09T22:51:54.631Z,12.47
2023-05-09T22:54:39.822Z,12.54
2023-05-09T22:57:24.917Z,12.59
2023-05-09T23:00:09.780Z,12.68
2023-05-09T23:02:54.883Z,12.80
2023-05-09T23:05:39.856Z,12.72
2023-05-09T23:08:25.034Z,12.69
2023-05-09T23:11:09.842Z,12.64
2023-05-09T23:13:54.979Z,12.61
2023-05-09T23:16:39.944Z,12.58
2023-05-09T23:19:25.008Z,12.61
2023-05-09T23:22:10.152Z,12.67
2023-05-09T23:24:55.243Z,12.72
2023-05-09T23:27:40.257Z,12.74
2023-05-09T23:30:25.160Z,12.77
2023-05-09T23:33:10.314Z,12.72
2023-05-09T23:35:55.365Z,12.53
2023-05-09T23:38:40.435Z,12.44
2023-05-09T23:41:25.465Z,12.31
2023-05-09T23:44:10.412Z,12.28
2023-05-09T23:46:55.706Z,12.32
2023-05-09T23:49:40.541Z,12.39
2023-05-09T23:52:25.786Z,12.40
2023-05-09T23:55:10.792Z,12.35
2023-05-09T23:57:55.852Z,12.27
